createdAt,value
2023-05-24T00:01:25.969Z,33.70
2023-05-24T00:06:34.916Z,33.80
2023-05-24T00:11:38.235Z,33.90
2023-05-24T00:16:41.598Z,33.50
2023-05-24T00:21:46.756Z,33.70
2023-05-24T00:26:49.957Z,34.10
2023-05-24T00:31:53.114Z,33.90
2023-05-24T00:36:57.885Z,33.90
2023-05-24T00:42:01.429Z,34.30
2023-05-24T00:47:04.685Z,34.10
2023-05-24T00:52:10.004Z,33.80
2023-05-24T00:57:14.503Z,34.30
2023-05-24T01:02:18.546Z,34.00
2023-05-24T01:07:38.883Z,33.90
2023-05-24T01:12:54.601Z,34.70
2023-05-24T01:18:06.430Z,34.60
2023-05-24T01:23:23.385Z,34.50
2023-05-24T01:28:28.806Z,34.50
2023-05-24T01:33:32.123Z,34.50
2023-05-24T01:38:35.279Z,34.00
2023-05-24T01:43:41.783Z,35.00
2023-05-24T01:48:55.884Z,34.40
2023-05-24T01:54:00.494Z,34.40
2023-05-24T01:59:07.441Z,34.40
2023-05-24T02:04:10.662Z,34.40
2023-05-24T02:09:13.780Z,34.30
2023-05-24T02:14:20.058Z,33.80
2023-05-24T02:19:23.317Z,34.30
2023-05-24T02:24:26.857Z,34.20
2023-05-24T02:29:31.339Z,34.10
2023-05-24T02:34:34.556Z,34.10
2023-05-24T02:39:37.669Z,34.00
2023-05-24T02:44:42.817Z,34.00
2023-05-24T02:49:45.995Z,34.00
2023-05-24T02:54:49.167Z,33.80
2023-05-24T02:59:54.078Z,33.70
2023-05-24T03:04:57.201Z,34.30
2023-05-24T03:10:00.346Z,33.90
2023-05-24T03:15:05.159Z,34.10
2023-05-24T03:20:11.721Z,34.50
2023-05-24T03:25:15.075Z,34.30
2023-05-24T03:30:19.676Z,34.10
2023-05-24T03:35:22.825Z,34.60
2023-05-24T03:40:29.594Z,34.40
2023-05-24T03:45:39.155Z,34.70
2023-05-24T03:50:43.339Z,34.90
2023-05-24T03:55:46.607Z,34.60
2023-05-24T04:00:51.104Z,34.80
2023-05-24T04:05:55.109Z,35.00
2023-05-24T04:10:58.245Z,35.00
2023-05-24T04:16:02.847Z,35.10
2023-05-24T04:21:06.353Z,35.40
2023-05-24T04:26:11.260Z,35.10
2023-05-24T04:31:17.825Z,35.40
2023-05-24T04:36:22.928Z,35.90
2023-05-24T04:41:27.258Z,35.20
2023-05-24T04:46:32.092Z,35.40
2023-05-24T04:51:38.521Z,36.00
2023-05-24T04:56:41.867Z,35.90
2023-05-24T05:01:46.735Z,36.00
2023-05-24T05:06:50.102Z,36.40
2023-05-24T05:11:53.202Z,36.30
2023-05-24T05:16:57.828Z,36.00
2023-05-24T05:22:01.120Z,36.10
2023-05-24T05:27:04.777Z,36.10
2023-05-24T05:32:09.720Z,36.00
2023-05-24T05:37:12.945Z,36.40
2023-05-24T05:42:16.257Z,36.70
2023-05-24T05:47:20.784Z,36.40
2023-05-24T05:52:23.931Z,36.60
2023-05-24T05:57:27.165Z,36.10
2023-05-24T06:02:31.827Z,36.30
2023-05-24T06:07:35.814Z,36.50
2023-05-24T06:12:40.547Z,36.30
2023-05-24T06:17:48.000Z,36.50
2023-05-24T06:22:51.180Z,36.80
2023-05-24T06:27:54.633Z,36.30
2023-05-24T06:32:59.227Z,36.40
2023-05-24T06:38:02.373Z,36.70
2023-05-24T06:43:05.927Z,36.50
2023-05-24T06:48:10.644Z,36.60
2023-05-24T06:53:13.918Z,36.60
2023-05-24T06:58:18.076Z,36.30
2023-05-24T07:03:23.435Z,35.80
2023-05-24T07:08:26.765Z,35.60
2023-05-24T07:13:29.856Z,35.50
2023-05-24T07:18:34.319Z,35.20
2023-05-24T07:23:38.212Z,35.10
2023-05-24T07:28:41.631Z,35.20
2023-05-24T07:33:46.162Z,34.80
2023-05-24T07:38:49.292Z,34.90
2023-05-24T07:43:52.527Z,34.80
2023-05-24T07:48:57.215Z,34.60
2023-05-24T07:54:00.397Z,34.50
2023-05-24T07:59:04.892Z,34.60
2023-05-24T08:04:10.427Z,34.30
2023-05-24T08:09:13.657Z,34.60
2023-05-24T08:14:16.816Z,34.40
2023-05-24T08:19:21.328Z,34.30
2023-05-24T08:24:24.927Z,34.30
2023-05-24T08:29:28.531Z,34.30
2023-05-24T08:34:33.582Z,34.20
2023-05-24T08:39:36.696Z,34.20
2023-05-24T08:44:46.016Z,34.10
2023-05-24T08:49:52.409Z,34.10
2023-05-24T08:54:56.915Z,34.10
2023-05-24T09:00:00.414Z,34.10
2023-05-24T09:05:07.290Z,34.20
2023-05-24T09:10:11.880Z,34.10
2023-05-24T09:15:14.992Z,34.00
2023-05-24T09:20:21.202Z,34.00
2023-05-24T09:25:24.569Z,34.00
2023-05-24T09:30:27.701Z,34.10
2023-05-24T09:35:32.351Z,34.10
2023-05-24T09:40:35.491Z,34.20
2023-05-24T09:45:47.355Z,34.20
2023-05-24T09:51:03.917Z,34.20
2023-05-24T09:56:09.660Z,33.90
2023-05-24T10:01:14.583Z,34.20
2023-05-24T10:06:19.739Z,33.60
2023-05-24T10:11:23.036Z,33.00
2023-05-24T10:16:26.820Z,33.10
2023-05-24T10:21:33.298Z,33.30
2023-05-24T10:26:39.853Z,32.90
2023-05-24T10:31:43.724Z,32.60
2023-05-24T10:36:49.297Z,32.80
2023-05-24T10:41:52.802Z,32.70
2023-05-24T10:47:12.357Z,32.60
2023-05-24T10:52:16.916Z,32.30
2023-05-24T10:57:25.718Z,32.70
2023-05-24T11:02:30.016Z,31.80
2023-05-24T11:07:43.043Z,32.50
2023-05-24T11:12:46.318Z,32.10
2023-05-24T11:18:17.455Z,32.60
2023-05-24T11:23:22.307Z,31.80
2023-05-24T11:28:25.950Z,32.00
2023-05-24T11:33:29.181Z,32.30
2023-05-24T11:38:36.733Z,32.10
2023-05-24T11:43:41.332Z,31.60
2023-05-24T11:48:45.607Z,32.10
2023-05-24T11:53:54.438Z,31.70
2023-05-24T11:59:06.200Z,31.30
2023-05-24T12:04:10.493Z,30.80
2023-05-24T12:09:16.912Z,30.90
2023-05-24T12:14:21.566Z,30.60
2023-05-24T12:24:35.320Z,30.60
2023-05-24T12:29:40.940Z,30.10
2023-05-24T12:34:45.892Z,30.10
2023-05-24T12:39:52.331Z,30.40
2023-05-24T12:44:57.418Z,30.10
2023-05-24T12:50:00.516Z,30.30
2023-05-24T12:55:06.969Z,30.10
2023-05-24T13:00:11.831Z,29.20
2023-05-24T13:05:15.327Z,29.50
2023-05-24T13:10:20.484Z,29.60
2023-05-24T13:15:24.286Z,29.20
2023-05-24T13:20:27.762Z,29.70
2023-05-24T13:25:32.737Z,29.50
2023-05-24T13:30:36.360Z,29.20
2023-05-24T13:35:39.820Z,28.80
2023-05-24T13:40:44.610Z,28.30
2023-05-24T13:45:47.948Z,27.60
2023-05-24T13:50:51.269Z,28.20
2023-05-24T13:55:56.562Z,27.80
2023-05-24T14:00:59.915Z,27.40
2023-05-24T14:06:03.171Z,27.70
2023-05-24T14:11:08.095Z,27.40
2023-05-24T14:16:13.184Z,27.00
2023-05-24T14:21:16.746Z,26.70
2023-05-24T14:26:22.152Z,27.30
2023-05-24T14:31:25.942Z,26.50
2023-05-24T14:36:32.236Z,26.90
2023-05-24T14:41:37.033Z,26.70
2023-05-24T14:46:41.795Z,26.50
2023-05-24T14:51:48.422Z,26.90
2023-05-24T14:56:54.371Z,26.80
2023-05-24T15:01:57.541Z,26.90
2023-05-24T15:07:00.826Z,26.90
2023-05-24T15:12:07.725Z,27.20
2023-05-24T15:17:11.314Z,26.50
2023-05-24T15:22:14.545Z,27.00
2023-05-24T15:27:19.097Z,26.90
2023-05-24T15:32:22.313Z,26.70
2023-05-24T15:37:25.494Z,26.80
2023-05-24T15:42:31.083Z,27.10
2023-05-24T15:47:38.112Z,26.20
2023-05-24T15:52:41.376Z,27.00
2023-05-24T15:57:45.975Z,27.20
2023-05-24T16:02:49.138Z,26.70
2023-05-24T16:07:52.308Z,27.10
2023-05-24T16:12:57.395Z,27.10
2023-05-24T16:18:00.602Z,26.90
2023-05-24T16:23:04.450Z,27.10
2023-05-24T16:28:09.040Z,27.20
2023-05-24T16:33:12.246Z,26.70
2023-05-24T16:38:15.393Z,27.00
2023-05-24T16:43:20.043Z,27.50
2023-05-24T16:48:28.343Z,27.50
2023-05-24T16:53:32.032Z,27.50
2023-05-24T16:58:37.430Z,27.50
2023-05-24T17:03:41.128Z,27.70
2023-05-24T17:08:44.324Z,27.80
2023-05-24T17:13:48.824Z,27.70
2023-05-24T17:18:52.047Z,27.60
2023-05-24T17:23:56.738Z,28.00
2023-05-24T17:29:01.272Z,28.00
2023-05-24T17:34:04.732Z,27.90
2023-05-24T17:39:08.038Z,27.80
2023-05-24T17:44:12.612Z,27.80
2023-05-24T17:49:16.676Z,28.00
2023-05-24T17:54:20.042Z,27.90
2023-05-24T17:59:24.522Z,28.00
2023-05-24T18:04:27.713Z,27.90
2023-05-24T18:09:30.889Z,27.80
2023-05-24T18:14:35.450Z,27.70
2023-05-24T18:19:38.757Z,27.70
2023-05-24T18:24:41.968Z,27.80
2023-05-24T18:29:46.563Z,27.80
2023-05-24T18:34:49.762Z,28.40
2023-05-24T18:39:52.972Z,27.80
2023-05-24T18:44:57.469Z,27.90
2023-05-24T18:50:00.700Z,27.90
2023-05-24T18:55:07.186Z,28.00
2023-05-24T19:00:13.346Z,28.10
2023-05-24T19:05:17.703Z,28.10
2023-05-24T19:10:21.055Z,28.20
2023-05-24T19:15:25.843Z,28.30
2023-05-24T19:20:29.248Z,28.50
2023-05-24T19:25:32.449Z,28.40
2023-05-24T19:30:37.597Z,28.50
2023-05-24T19:35:41.163Z,28.70
2023-05-24T19:40:44.464Z,28.70
2023-05-24T19:45:51.878Z,28.70
2023-05-24T19:50:55.261Z,28.60
2023-05-24T19:55:58.865Z,28.30
2023-05-24T20:01:03.644Z,28.10
2023-05-24T20:06:07.102Z,28.00
2023-05-24T20:11:10.307Z,28.00
2023-05-24T20:16:14.876Z,28.10
2023-05-24T20:21:19.492Z,28.10
2023-05-24T20:26:22.877Z,28.00
2023-05-24T20:31:27.803Z,28.10
2023-05-24T20:36:32.132Z,28.10
2023-05-24T20:41:35.453Z,28.10
2023-05-24T20:46:40.118Z,28.10
2023-05-24T20:51:43.269Z,28.20
2023-05-24T20:56:46.462Z,28.10
2023-05-24T21:01:51.087Z,28.10
2023-05-24T21:06:55.137Z,28.20
2023-05-24T21:11:58.361Z,28.30
2023-05-24T21:17:02.946Z,28.40
2023-05-24T21:22:06.296Z,28.40
2023-05-24T21:27:09.525Z,28.40
2023-05-24T21:32:14.114Z,28.40
2023-05-24T21:37:17.515Z,28.50
2023-05-24T21:42:20.733Z,28.60
2023-05-24T21:47:25.328Z,28.60
2023-05-24T21:52:28.464Z,28.50
2023-05-24T21:57:31.567Z,28.50
2023-05-24T22:02:36.987Z,28.40
2023-05-24T22:07:40.203Z,28.60
2023-05-24T22:12:43.433Z,28.50
2023-05-24T22:17:48.236Z,28.60
2023-05-24T22:22:53.683Z,28.70
2023-05-24T22:27:57.252Z,28.80
2023-05-24T22:33:02.125Z,28.90
2023-05-24T22:38:05.392Z,28.70
2023-05-24T22:43:08.505Z,29.30
2023-05-24T22:48:13.061Z,28.80
2023-05-24T22:53:17.186Z,28.90
2023-05-24T22:58:23.139Z,28.90
2023-05-24T23:03:27.634Z,29.10
2023-05-24T23:08:31.861Z,29.10
2023-05-24T23:13:35.988Z,29.10
2023-05-24T23:18:42.938Z,28.90
2023-05-24T23:23:46.283Z,29.10
2023-05-24T23:28:49.578Z,29.00
2023-05-24T23:33:54.066Z,29.20
2023-05-24T23:38:57.236Z,29.30
2023-05-24T23:44:00.407Z,29.10
2023-05-24T23:49:05.007Z,29.20
2023-05-24T23:54:08.146Z,29.50
2023-05-24T23:59:11.591Z,29.60
